createdAt,value
2018-05-02T00:00:50.479Z,7.16
2018-05-02T00:03:01.559Z,7.20
2018-05-02T00:05:12.654Z,7.19
2018-05-02T00:07:23.738Z,7.18
2018-05-02T00:09:34.921Z,7.18
2018-05-02T00:11:46.095Z,7.18
2018-05-02T00:13:57.271Z,7.19
2018-05-02T00:16:08.507Z,7.20
2018-05-02T00:18:19.574Z,7.19
2018-05-02T00:20:30.703Z,7.08
2018-05-02T00:22:41.762Z,7.00
2018-05-02T00:24:52.801Z,7.02
2018-05-02T00:27:03.874Z,7.07
2018-05-02T00:29:14.978Z,7.13
2018-05-02T00:31:26.090Z,7.11
2018-05-02T00:33:37.302Z,7.12
2018-05-02T00:35:48.694Z,7.13
2018-05-02T00:37:59.785Z,7.17
2018-05-02T00:40:10.838Z,7.21
2018-05-02T00:42:21.955Z,7.25
2018-05-02T00:44:33.031Z,7.26
2018-05-02T00:46:44.118Z,7.29
2018-05-02T00:49:07.411Z,7.19
2018-05-02T00:51:18.526Z,7.12
2018-05-02T00:53:29.593Z,7.16
2018-05-02T00:55:40.677Z,7.16
2018-05-02T00:57:51.774Z,7.12
2018-05-02T01:00:02.954Z,7.07
2018-05-02T01:02:14.082Z,7.09
2018-05-02T01:04:25.241Z,7.05
2018-05-02T01:06:36.310Z,7.04
2018-05-02T01:08:47.409Z,7.03
2018-05-02T01:10:58.486Z,7.02
2018-05-02T01:13:09.581Z,7.00
2018-05-02T01:15:20.642Z,7.04
2018-05-02T01:17:31.741Z,7.11
2018-05-02T01:19:42.905Z,7.18
2018-05-02T01:21:53.949Z,7.29
2018-05-02T01:24:05.109Z,7.31
2018-05-02T01:26:16.166Z,7.42
2018-05-02T01:28:27.273Z,7.43
2018-05-02T01:30:38.363Z,7.40
2018-05-02T01:32:49.431Z,7.35
2018-05-02T01:35:00.578Z,7.38
2018-05-02T01:37:11.666Z,7.46
2018-05-02T01:39:22.832Z,7.49
2018-05-02T01:41:33.893Z,7.57
2018-05-02T01:43:44.996Z,7.63
2018-05-02T01:45:56.055Z,7.71
2018-05-02T01:48:07.133Z,7.80
2018-05-02T01:50:18.194Z,7.88
2018-05-02T01:52:29.334Z,7.94
2018-05-02T01:54:40.542Z,7.95
2018-05-02T01:56:51.664Z,7.91
2018-05-02T01:59:02.698Z,7.94
2018-05-02T02:01:13.797Z,7.99
2018-05-02T02:03:24.873Z,8.03
2018-05-02T02:05:35.958Z,8.08
2018-05-02T02:07:47.205Z,8.12
2018-05-02T02:09:58.323Z,8.15
2018-05-02T02:12:09.537Z,8.19
2018-05-02T02:14:20.714Z,8.23
2018-05-02T02:16:31.796Z,8.27
2018-05-02T02:18:43.025Z,8.29
2018-05-02T02:20:54.103Z,8.34
2018-05-02T02:23:05.182Z,8.38
2018-05-02T02:25:16.258Z,8.39
2018-05-02T02:27:27.318Z,8.42
2018-05-02T02:29:38.368Z,8.46
2018-05-02T02:31:49.550Z,8.49
2018-05-02T02:34:00.769Z,8.56
2018-05-02T02:36:11.798Z,8.59
2018-05-02T02:38:22.838Z,8.59
2018-05-02T02:40:33.906Z,8.61
2018-05-02T02:42:45.008Z,8.62
2018-05-02T02:44:56.100Z,8.59
2018-05-02T02:47:07.256Z,8.58
2018-05-02T02:49:18.318Z,8.63
2018-05-02T02:51:29.457Z,8.69
2018-05-02T02:53:40.577Z,8.75
2018-05-02T02:55:51.674Z,8.80
2018-05-02T02:58:02.833Z,8.79
2018-05-02T03:00:13.896Z,8.82
2018-05-02T03:02:25.074Z,8.84
2018-05-02T03:04:36.157Z,8.85
2018-05-02T03:06:47.273Z,8.83
2018-05-02T03:08:58.348Z,8.80
2018-05-02T03:11:09.430Z,8.82
2018-05-02T03:13:20.557Z,8.83
2018-05-02T03:15:31.659Z,8.86
2018-05-02T03:17:42.721Z,8.87
2018-05-02T03:19:53.818Z,8.89
2018-05-02T03:22:05.038Z,8.86
2018-05-02T03:24:16.114Z,8.87
2018-05-02T03:26:27.183Z,8.88
2018-05-02T03:28:38.333Z,8.85
2018-05-02T03:30:49.450Z,8.81
2018-05-02T03:33:00.506Z,8.80
2018-05-02T03:35:11.623Z,8.81
2018-05-02T03:37:22.696Z,8.81
2018-05-02T03:39:33.771Z,8.85
2018-05-02T03:41:44.833Z,8.91
2018-05-02T03:43:55.975Z,8.88
2018-05-02T03:46:07.145Z,8.89
2018-05-02T03:48:18.204Z,8.90
2018-05-02T03:50:29.408Z,8.92
2018-05-02T03:52:40.461Z,8.97
2018-05-02T03:54:51.553Z,8.98
2018-05-02T03:57:02.606Z,8.98
2018-05-02T03:59:13.727Z,9.01
2018-05-02T04:01:37.163Z,9.05
2018-05-02T04:04:00.611Z,9.07
2018-05-02T04:06:23.922Z,9.01
2018-05-02T04:08:35.100Z,8.95
2018-05-02T04:10:46.125Z,8.93
2018-05-02T04:12:57.262Z,8.95
2018-05-02T04:15:08.297Z,8.93
2018-05-02T04:17:19.354Z,8.94
2018-05-02T04:19:30.444Z,8.94
2018-05-02T04:21:41.611Z,8.87
2018-05-02T04:23:52.733Z,8.90
2018-05-02T04:26:03.937Z,8.95
2018-05-02T04:28:15.087Z,8.95
2018-05-02T04:30:26.132Z,8.94
2018-05-02T04:32:37.201Z,8.93
2018-05-02T04:34:48.261Z,8.94
2018-05-02T04:36:59.318Z,8.95
2018-05-02T04:39:10.421Z,9.01
2018-05-02T04:41:21.506Z,9.06
2018-05-02T04:43:32.623Z,9.13
2018-05-02T04:45:43.810Z,9.15
2018-05-02T04:47:54.862Z,9.28
2018-05-02T04:50:05.897Z,9.39
2018-05-02T04:52:17.029Z,9.46
2018-05-02T04:54:28.110Z,9.46
2018-05-02T04:56:39.183Z,9.47
2018-05-02T04:58:50.277Z,9.44
2018-05-02T05:01:01.343Z,9.48
2018-05-02T05:03:12.409Z,9.48
2018-05-02T05:05:23.764Z,9.48
2018-05-02T05:07:34.833Z,9.48
2018-05-02T05:09:45.905Z,9.50
2018-05-02T05:11:56.973Z,9.52
2018-05-02T05:14:08.062Z,9.52
2018-05-02T05:16:19.195Z,9.54
2018-05-02T05:18:30.339Z,9.59
2018-05-02T05:20:41.390Z,9.58
2018-05-02T05:22:53.374Z,9.62
2018-05-02T05:25:04.422Z,9.58
2018-05-02T05:27:15.537Z,9.57
2018-05-02T05:29:26.628Z,9.58
2018-05-02T05:31:37.786Z,9.57
2018-05-02T05:33:48.885Z,9.58
2018-05-02T05:35:59.977Z,9.57
2018-05-02T05:38:12.010Z,9.61
2018-05-02T05:40:23.117Z,9.59
2018-05-02T05:42:35.189Z,9.56
2018-05-02T05:44:46.294Z,9.55
2018-05-02T05:46:57.377Z,9.53
2018-05-02T05:49:08.439Z,9.56
2018-05-02T05:51:19.537Z,9.58
2018-05-02T05:53:30.598Z,9.61
2018-05-02T05:55:41.653Z,9.64
2018-05-02T05:57:52.725Z,9.67
2018-05-02T06:00:03.842Z,9.75
2018-05-02T06:02:14.977Z,9.84
2018-05-02T06:04:26.211Z,9.86
2018-05-02T06:06:37.293Z,9.87
2018-05-02T06:08:48.378Z,9.91
2018-05-02T06:10:59.450Z,9.94
2018-05-02T06:13:10.489Z,9.94
2018-05-02T06:15:21.590Z,9.98
2018-05-02T06:17:32.675Z,9.98
2018-05-02T06:19:43.767Z,9.97
2018-05-02T06:21:54.856Z,9.94
2018-05-02T06:24:06.067Z,9.97
2018-05-02T06:26:17.221Z,10.01
2018-05-02T06:28:28.211Z,10.01
2018-05-02T06:30:39.274Z,10.02
2018-05-02T06:32:50.313Z,10.02
2018-05-02T06:35:01.461Z,10.10
2018-05-02T06:37:12.534Z,10.16
2018-05-02T06:39:23.751Z,10.16
2018-05-02T06:41:34.818Z,10.22
2018-05-02T06:43:45.974Z,10.27
2018-05-02T06:45:57.035Z,10.28
2018-05-02T06:48:08.111Z,10.31
2018-05-02T06:50:19.284Z,10.35
2018-05-02T06:52:30.302Z,10.37
2018-05-02T06:54:41.436Z,10.44
2018-05-02T06:56:52.858Z,10.48
2018-05-02T06:59:04.010Z,10.52
2018-05-02T07:01:15.131Z,10.56
2018-05-02T07:03:26.235Z,10.53
2018-05-02T07:05:37.310Z,10.57
2018-05-02T07:07:48.382Z,10.56
2018-05-02T07:09:59.445Z,10.60
2018-05-02T07:12:10.506Z,10.63
2018-05-02T07:14:21.624Z,10.70
2018-05-02T07:16:32.781Z,10.76
2018-05-02T07:18:43.884Z,10.79
2018-05-02T07:20:54.974Z,10.84
2018-05-02T07:23:06.024Z,10.88
2018-05-02T07:25:17.129Z,10.85
2018-05-02T07:27:28.250Z,10.90
2018-05-02T07:29:39.334Z,10.92
2018-05-02T07:31:50.527Z,10.95
2018-05-02T07:34:01.615Z,11.01
2018-05-02T07:36:12.846Z,11.07
2018-05-02T07:38:24.046Z,11.15
2018-05-02T07:40:35.151Z,11.20
2018-05-02T07:42:46.355Z,11.23
2018-05-02T07:44:57.411Z,11.27
2018-05-02T07:47:08.485Z,11.24
2018-05-02T07:49:19.530Z,11.26
2018-05-02T07:51:30.605Z,11.25
2018-05-02T07:53:41.718Z,11.26
2018-05-02T07:55:52.787Z,11.28
2018-05-02T07:58:03.912Z,11.31
2018-05-02T08:00:14.884Z,11.33
2018-05-02T08:02:25.963Z,11.36
2018-05-02T08:04:37.041Z,11.43
2018-05-02T08:06:48.205Z,11.50
2018-05-02T08:08:59.266Z,11.57
2018-05-02T08:11:10.508Z,11.62
2018-05-02T08:13:21.461Z,11.67
2018-05-02T08:15:32.586Z,11.65
2018-05-02T08:17:43.676Z,11.65
2018-05-02T08:19:54.750Z,11.63
2018-05-02T08:22:05.828Z,11.61
2018-05-02T08:24:16.898Z,11.68
2018-05-02T08:26:28.006Z,11.83
2018-05-02T08:28:39.104Z,11.99
2018-05-02T08:30:50.182Z,12.14
2018-05-02T08:33:01.293Z,12.28
2018-05-02T08:35:12.357Z,12.40
2018-05-02T08:37:23.456Z,12.52
2018-05-02T08:39:34.549Z,12.60
2018-05-02T08:41:45.675Z,12.65
2018-05-02T08:43:56.783Z,12.70
2018-05-02T08:46:07.873Z,12.81
2018-05-02T08:48:18.958Z,12.93
2018-05-02T08:50:30.022Z,13.05
2018-05-02T08:52:41.118Z,13.19
2018-05-02T08:54:52.148Z,13.43
2018-05-02T08:57:03.237Z,13.68
2018-05-02T08:59:14.321Z,13.87
2018-05-02T09:01:25.376Z,13.96
2018-05-02T09:03:36.522Z,14.05
2018-05-02T09:05:47.612Z,14.14
2018-05-02T09:07:58.714Z,14.18
2018-05-02T09:10:09.790Z,14.27
2018-05-02T09:12:20.906Z,14.31
2018-05-02T09:14:31.978Z,14.35
2018-05-02T09:16:43.080Z,14.41
2018-05-02T09:18:54.283Z,14.46
2018-05-02T09:21:05.395Z,14.56
2018-05-02T09:23:16.589Z,14.70
2018-05-02T09:25:27.682Z,14.77
2018-05-02T09:27:38.752Z,14.86
2018-05-02T09:29:49.819Z,14.97
2018-05-02T09:32:00.942Z,15.00
2018-05-02T09:34:12.063Z,15.04
2018-05-02T09:36:23.211Z,15.03
2018-05-02T09:38:34.406Z,15.20
2018-05-02T09:40:45.510Z,15.26
2018-05-02T09:42:56.613Z,15.29
2018-05-02T09:45:07.684Z,15.35
2018-05-02T09:47:18.777Z,15.32
2018-05-02T09:49:29.853Z,15.36
2018-05-02T09:51:40.977Z,15.38
2018-05-02T09:53:52.058Z,15.46
2018-05-02T09:56:03.220Z,15.50
2018-05-02T09:58:14.457Z,15.48
2018-05-02T10:00:29.361Z,15.43
2018-05-02T10:02:40.450Z,15.32
2018-05-02T10:04:51.517Z,15.38
2018-05-02T10:07:02.609Z,15.46
2018-05-02T10:09:13.750Z,15.45
2018-05-02T10:11:24.854Z,15.51
2018-05-02T10:13:35.998Z,15.55
2018-05-02T10:15:47.194Z,15.53
2018-05-02T10:17:58.514Z,15.53
2018-05-02T10:20:09.570Z,15.51
2018-05-02T10:22:20.775Z,15.55
2018-05-02T10:24:31.862Z,15.58
2018-05-02T10:26:42.916Z,15.63
2018-05-02T10:28:53.989Z,15.70
2018-05-02T10:31:05.122Z,15.75
2018-05-02T10:33:16.238Z,15.90
2018-05-02T10:35:27.361Z,16.03
2018-05-02T10:37:38.634Z,16.07
2018-05-02T10:39:49.789Z,16.00
2018-05-02T10:42:00.877Z,15.97
2018-05-02T10:44:11.981Z,16.04
2018-05-02T10:46:23.048Z,16.10
2018-05-02T10:48:34.123Z,16.18
2018-05-02T10:50:45.216Z,16.20
2018-05-02T10:52:56.303Z,16.17
2018-05-02T10:55:07.548Z,16.17
2018-05-02T10:57:18.691Z,16.21
2018-05-02T10:59:29.780Z,16.32
2018-05-02T11:01:40.986Z,16.29
2018-05-02T11:03:52.100Z,16.35
2018-05-02T11:06:03.227Z,16.40
2018-05-02T11:08:14.356Z,16.50
2018-05-02T11:10:25.426Z,16.66
2018-05-02T11:12:36.524Z,16.74
2018-05-02T11:14:47.635Z,16.95
2018-05-02T11:16:58.737Z,17.22
2018-05-02T11:19:09.786Z,17.37
2018-05-02T11:21:20.906Z,17.45
2018-05-02T11:23:32.015Z,17.55
2018-05-02T11:25:43.141Z,17.51
2018-05-02T11:27:54.239Z,17.57
2018-05-02T11:30:05.354Z,17.56
2018-05-02T11:32:16.423Z,17.49
2018-05-02T11:34:27.562Z,17.62
2018-05-02T11:36:38.737Z,17.75
2018-05-02T11:38:49.793Z,17.77
2018-05-02T11:41:00.909Z,17.77
2018-05-02T11:43:12.002Z,17.81
2018-05-02T11:45:23.174Z,17.94
2018-05-02T11:47:34.314Z,18.07
2018-05-02T11:49:45.404Z,18.29
2018-05-02T11:51:56.524Z,18.46
2018-05-02T11:54:07.703Z,18.66
2018-05-02T11:56:18.790Z,18.64
2018-05-02T11:58:29.913Z,18.55
2018-05-02T12:00:40.990Z,18.39
2018-05-02T12:02:52.073Z,18.29
2018-05-02T12:05:03.207Z,18.31
2018-05-02T12:07:14.300Z,18.40
2018-05-02T12:09:25.524Z,18.54
2018-05-02T12:11:36.650Z,18.67
2018-05-02T12:13:47.754Z,18.71
2018-05-02T12:15:59.037Z,18.72
2018-05-02T12:18:10.090Z,18.72
2018-05-02T12:20:21.184Z,18.77
2018-05-02T12:22:32.345Z,18.70
2018-05-02T12:24:43.442Z,18.68
2018-05-02T12:26:54.542Z,18.70
2018-05-02T12:29:05.658Z,18.71
2018-05-02T12:31:16.754Z,18.76
2018-05-02T12:33:27.906Z,18.75
2018-05-02T12:35:39.077Z,18.78
2018-05-02T12:37:50.191Z,18.82
2018-05-02T12:40:01.286Z,18.89
2018-05-02T12:42:13.628Z,18.97
2018-05-02T12:44:24.847Z,19.06
2018-05-02T12:46:36.090Z,19.08
2018-05-02T12:48:47.205Z,19.08
2018-05-02T12:50:58.294Z,19.09
2018-05-02T12:53:09.470Z,19.14
2018-05-02T12:55:20.558Z,19.11
2018-05-02T12:57:31.606Z,19.07
2018-05-02T12:59:43.723Z,19.01
2018-05-02T13:01:54.798Z,18.97
2018-05-02T13:04:05.901Z,19.09
2018-05-02T13:06:16.994Z,19.17
2018-05-02T13:08:28.075Z,19.19
2018-05-02T13:10:39.306Z,19.21
2018-05-02T13:12:50.389Z,19.17
2018-05-02T13:15:01.597Z,19.16
2018-05-02T13:17:12.686Z,19.12
2018-05-02T13:19:23.815Z,19.02
2018-05-02T13:21:34.984Z,19.00
2018-05-02T13:23:46.073Z,18.99
2018-05-02T13:25:57.166Z,19.01
2018-05-02T13:28:08.242Z,19.02
2018-05-02T13:30:19.414Z,18.95
2018-05-02T13:32:30.471Z,18.93
2018-05-02T13:34:41.587Z,18.84
2018-05-02T13:36:52.727Z,18.73
2018-05-02T13:39:04.638Z,18.76
2018-05-02T13:41:15.766Z,18.81
2018-05-02T13:43:26.905Z,18.77
2018-05-02T13:45:38.062Z,18.76
2018-05-02T13:47:49.150Z,18.78
2018-05-02T13:50:00.242Z,18.75
2018-05-02T13:52:11.322Z,18.75
2018-05-02T13:54:22.426Z,18.76
2018-05-02T13:56:33.609Z,18.71
2018-05-02T13:58:44.683Z,18.65
2018-05-02T14:00:55.810Z,18.65
2018-05-02T14:03:06.905Z,18.63
2018-05-02T14:05:18.006Z,18.67
2018-05-02T14:07:29.171Z,18.66
2018-05-02T14:09:40.278Z,18.71
2018-05-02T14:11:51.357Z,18.71
2018-05-02T14:14:02.446Z,18.74
2018-05-02T14:16:13.541Z,18.71
2018-05-02T14:18:24.657Z,18.65
2018-05-02T14:20:35.810Z,18.55
2018-05-02T14:22:46.922Z,18.56
2018-05-02T14:24:58.070Z,18.64
2018-05-02T14:27:09.116Z,18.67
2018-05-02T14:29:20.206Z,18.74
2018-05-02T14:31:31.314Z,18.73
2018-05-02T14:33:42.370Z,18.77
2018-05-02T14:35:53.491Z,18.82
2018-05-02T14:38:04.677Z,18.83
2018-05-02T14:40:15.925Z,18.84
2018-05-02T14:42:27.019Z,18.85
2018-05-02T14:44:38.081Z,18.82
2018-05-02T14:46:49.162Z,18.76
2018-05-02T14:49:00.266Z,18.75
2018-05-02T14:51:11.365Z,18.87
2018-05-02T14:53:22.471Z,19.11
2018-05-02T14:55:33.667Z,19.23
2018-05-02T14:57:44.709Z,19.39
2018-05-02T14:59:55.806Z,19.50
2018-05-02T15:02:07.010Z,19.60
2018-05-02T15:04:18.006Z,19.62
2018-05-02T15:06:29.078Z,19.56
2018-05-02T15:08:40.185Z,19.60
2018-05-02T15:10:51.281Z,19.60
2018-05-02T15:13:02.432Z,19.59
2018-05-02T15:15:13.534Z,19.53
2018-05-02T15:17:24.659Z,19.35
2018-05-02T15:19:35.742Z,19.18
2018-05-02T15:21:46.855Z,19.10
2018-05-02T15:23:57.978Z,19.09
2018-05-02T15:26:09.101Z,19.14
2018-05-02T15:28:20.289Z,19.17
2018-05-02T15:30:31.394Z,19.12
2018-05-02T15:32:42.527Z,19.06
2018-05-02T15:34:53.685Z,18.98
2018-05-02T15:37:04.868Z,18.94
2018-05-02T15:39:16.113Z,18.89
2018-05-02T15:41:27.187Z,18.85
2018-05-02T15:43:38.469Z,18.85
2018-05-02T15:45:49.558Z,18.84
2018-05-02T15:48:00.708Z,18.81
2018-05-02T15:50:11.817Z,18.79
2018-05-02T15:52:22.927Z,18.77
2018-05-02T15:54:34.151Z,18.78
2018-05-02T15:56:45.237Z,18.75
2018-05-02T15:58:56.480Z,18.75
2018-05-02T16:01:07.760Z,18.74
2018-05-02T16:03:18.865Z,18.71
2018-05-02T16:05:30.023Z,18.67
2018-05-02T16:07:41.141Z,18.67
2018-05-02T16:09:52.307Z,18.62
2018-05-02T16:12:03.428Z,18.64
2018-05-02T16:14:14.560Z,18.60
2018-05-02T16:16:25.850Z,18.57
2018-05-02T16:18:36.930Z,18.52
2018-05-02T16:20:48.118Z,18.51
2018-05-02T16:22:59.225Z,18.42
2018-05-02T16:25:10.330Z,18.40
2018-05-02T16:27:21.423Z,18.35
2018-05-02T16:29:32.494Z,18.31
2018-05-02T16:31:43.642Z,18.28
2018-05-02T16:33:54.708Z,18.28
2018-05-02T16:36:05.813Z,18.27
2018-05-02T16:38:16.931Z,18.26
2018-05-02T16:40:28.100Z,18.23
2018-05-02T16:42:39.224Z,18.24
2018-05-02T16:44:50.339Z,18.24
2018-05-02T16:47:01.434Z,18.20
2018-05-02T16:49:12.559Z,18.15
2018-05-02T16:51:23.620Z,18.12
2018-05-02T16:53:34.742Z,18.10
2018-05-02T16:55:45.929Z,18.09
2018-05-02T16:57:57.075Z,18.05
2018-05-02T17:00:08.229Z,18.01
2018-05-02T17:02:19.303Z,18.02
2018-05-02T17:04:30.569Z,18.01
2018-05-02T17:06:41.621Z,18.03
2018-05-02T17:08:52.755Z,18.03
2018-05-02T17:11:03.845Z,17.98
2018-05-02T17:13:14.939Z,17.92
2018-05-02T17:15:26.193Z,17.88
2018-05-02T17:17:37.305Z,17.83
2018-05-02T17:19:48.442Z,17.80
2018-05-02T17:21:59.625Z,17.79
2018-05-02T17:24:10.747Z,17.73
2018-05-02T17:26:21.882Z,17.68
2018-05-02T17:28:32.997Z,17.66
2018-05-02T17:30:44.125Z,17.64
2018-05-02T17:32:55.211Z,17.61
2018-05-02T17:35:06.378Z,17.53
2018-05-02T17:37:17.491Z,17.51
2018-05-02T17:39:28.789Z,17.45
2018-05-02T17:41:40.014Z,17.43
2018-05-02T17:43:51.146Z,17.43
2018-05-02T17:46:02.405Z,17.36
2018-05-02T17:48:13.573Z,17.29
2018-05-02T17:50:24.740Z,17.24
2018-05-02T17:52:35.944Z,17.22
2018-05-02T17:54:47.234Z,17.19
2018-05-02T17:56:58.343Z,17.16
2018-05-02T17:59:09.434Z,17.11
2018-05-02T18:01:20.558Z,17.06
2018-05-02T18:03:31.645Z,17.03
2018-05-02T18:05:42.786Z,17.03
2018-05-02T18:07:54.034Z,16.98
2018-05-02T18:10:05.174Z,16.94
2018-05-02T18:12:16.430Z,16.92
2018-05-02T18:14:27.526Z,16.89
2018-05-02T18:16:38.717Z,16.86
2018-05-02T18:18:49.872Z,16.80
2018-05-02T18:21:00.947Z,16.77
2018-05-02T18:23:12.073Z,16.74
2018-05-02T18:25:23.157Z,16.71
2018-05-02T18:27:34.304Z,16.66
2018-05-02T18:29:45.474Z,16.64
2018-05-02T18:31:56.630Z,16.63
2018-05-02T18:34:07.850Z,16.59
2018-05-02T18:36:19.058Z,16.57
2018-05-02T18:38:30.163Z,16.55
2018-05-02T18:40:41.279Z,16.55
2018-05-02T18:42:52.339Z,16.51
2018-05-02T18:45:03.452Z,16.50
2018-05-02T18:47:14.611Z,16.47
2018-05-02T18:49:25.692Z,16.44
2018-05-02T18:51:36.827Z,16.42
2018-05-02T18:53:48.011Z,16.39
2018-05-02T18:55:59.156Z,16.37
2018-05-02T18:58:10.267Z,16.35
2018-05-02T19:00:21.373Z,16.34
2018-05-02T19:02:32.629Z,16.32
2018-05-02T19:04:43.753Z,16.31
2018-05-02T19:06:55.002Z,16.28
2018-05-02T19:09:06.113Z,16.22
2018-05-02T19:11:17.340Z,16.21
2018-05-02T19:13:28.442Z,16.20
2018-05-02T19:15:39.546Z,16.19
2018-05-02T19:17:56.718Z,16.21
2018-05-02T19:20:13.863Z,16.19
2018-05-02T19:22:24.986Z,16.20
2018-05-02T19:24:42.231Z,16.20
2018-05-02T19:26:53.369Z,16.14
2018-05-02T19:29:04.499Z,16.11
2018-05-02T19:31:21.514Z,16.09
2018-05-02T19:33:38.625Z,16.07
2018-05-02T19:35:49.759Z,16.08
2018-05-02T19:38:00.879Z,16.03
2018-05-02T19:40:18.091Z,15.99
2018-05-02T19:42:35.169Z,15.96
2018-05-02T19:44:46.263Z,15.93
2018-05-02T19:46:57.365Z,15.91
2018-05-02T19:49:08.504Z,15.90
2018-05-02T19:51:25.795Z,15.87
2018-05-02T19:53:36.897Z,15.83
2018-05-02T19:55:48.018Z,15.80
2018-05-02T19:57:59.146Z,15.77
2018-05-02T20:00:16.405Z,15.77
2018-05-02T20:02:33.610Z,15.68
2018-05-02T20:04:44.802Z,15.56
2018-05-02T20:06:55.940Z,15.47
2018-05-02T20:09:13.217Z,15.45
2018-05-02T20:11:30.357Z,15.35
2018-05-02T20:13:47.428Z,15.35
2018-05-02T20:15:58.491Z,15.31
2018-05-02T20:18:09.651Z,15.25
2018-05-02T20:20:20.770Z,15.23
2018-05-02T20:22:31.835Z,15.20
2018-05-02T20:24:43.093Z,15.16
2018-05-02T20:26:54.182Z,15.15
2018-05-02T20:29:05.362Z,15.14
2018-05-02T20:31:16.450Z,15.14
2018-05-02T20:33:27.569Z,15.17
2018-05-02T20:35:38.658Z,15.18
2018-05-02T20:37:49.770Z,15.19
2018-05-02T20:40:00.938Z,15.18
2018-05-02T20:42:12.040Z,15.18
2018-05-02T20:44:23.157Z,15.19
2018-05-02T20:46:34.342Z,15.16
2018-05-02T20:48:45.432Z,15.09
2018-05-02T20:50:56.530Z,15.00
2018-05-02T20:53:07.640Z,14.95
2018-05-02T20:55:18.788Z,14.90
2018-05-02T20:57:29.862Z,14.82
2018-05-02T20:59:41.065Z,14.78
2018-05-02T21:01:52.199Z,14.70
2018-05-02T21:04:03.353Z,14.61
2018-05-02T21:06:14.461Z,14.56
2018-05-02T21:08:25.570Z,14.55
2018-05-02T21:10:36.678Z,14.48
2018-05-02T21:12:47.754Z,14.44
2018-05-02T21:14:58.909Z,14.44
2018-05-02T21:17:10.033Z,14.39
2018-05-02T21:19:21.129Z,14.38
2018-05-02T21:21:32.250Z,14.39
2018-05-02T21:23:43.432Z,14.37
2018-05-02T21:25:54.508Z,14.35
2018-05-02T21:28:05.625Z,14.31
2018-05-02T21:30:16.717Z,14.25
2018-05-02T21:32:27.859Z,14.24
2018-05-02T21:34:38.940Z,14.21
2018-05-02T21:36:50.042Z,14.23
2018-05-02T21:39:01.114Z,14.21
2018-05-02T21:41:12.241Z,14.17
2018-05-02T21:43:23.463Z,14.13
2018-05-02T21:45:34.542Z,14.08
2018-05-02T21:47:45.713Z,14.06
2018-05-02T21:49:56.744Z,14.07
2018-05-02T21:52:07.890Z,14.05
2018-05-02T21:54:19.025Z,14.03
2018-05-02T21:56:30.103Z,14.01
2018-05-02T21:58:41.173Z,14.02
2018-05-02T22:00:52.251Z,14.04
2018-05-02T22:03:03.397Z,14.05
2018-05-02T22:05:14.476Z,14.04
2018-05-02T22:07:25.656Z,13.97
2018-05-02T22:09:36.723Z,13.96
2018-05-02T22:11:47.905Z,13.87
2018-05-02T22:13:59.158Z,13.87
2018-05-02T22:16:10.221Z,13.89
2018-05-02T22:18:21.362Z,13.88
2018-05-02T22:20:32.432Z,13.87
2018-05-02T22:22:43.548Z,13.87
2018-05-02T22:24:54.640Z,13.84
2018-05-02T22:27:05.730Z,13.76
2018-05-02T22:29:16.801Z,13.67
2018-05-02T22:31:27.878Z,13.60
2018-05-02T22:33:39.094Z,13.59
2018-05-02T22:35:50.181Z,13.58
2018-05-02T22:38:01.294Z,13.57
2018-05-02T22:40:12.342Z,13.51
2018-05-02T22:42:23.439Z,13.50
2018-05-02T22:44:34.488Z,13.49
2018-05-02T22:46:45.671Z,13.48
2018-05-02T22:48:56.808Z,13.44
2018-05-02T22:51:08.066Z,13.40
2018-05-02T22:53:19.219Z,13.27
2018-05-02T22:55:30.306Z,13.25
2018-05-02T22:57:41.533Z,13.21
2018-05-02T22:59:52.623Z,13.21
2018-05-02T23:02:03.725Z,13.24
2018-05-02T23:04:14.830Z,13.25
2018-05-02T23:06:25.946Z,13.28
2018-05-02T23:08:36.998Z,13.23
2018-05-02T23:10:48.182Z,13.13
2018-05-02T23:12:59.289Z,13.06
2018-05-02T23:15:10.378Z,12.98
2018-05-02T23:17:21.603Z,12.92
2018-05-02T23:19:32.661Z,12.84
2018-05-02T23:21:43.707Z,12.88
2018-05-02T23:23:54.803Z,12.88
2018-05-02T23:26:05.882Z,12.81
2018-05-02T23:28:17.021Z,12.77
2018-05-02T23:30:28.254Z,12.74
2018-05-02T23:32:39.366Z,12.72
2018-05-02T23:34:50.544Z,12.75
2018-05-02T23:37:01.686Z,12.81
2018-05-02T23:39:12.847Z,12.79
2018-05-02T23:41:24.202Z,12.83
2018-05-02T23:43:35.217Z,12.87
2018-05-02T23:45:46.326Z,12.86
2018-05-02T23:47:57.411Z,12.87
2018-05-02T23:50:08.509Z,12.83
2018-05-02T23:52:19.642Z,12.81
2018-05-02T23:54:30.703Z,12.78
2018-05-02T23:56:41.821Z,12.77
2018-05-02T23:58:52.901Z,12.81
